Time;durP1;ratioP1;P1;durP2;ratioP2;P2;SDS_P1;SDS_P2;PMS_P1;PMS_P2;Temp;Humidity;BMP_temperature;BMP_pressure;BME280_temperature;BME280_humidity;BME280_pressure;Samples;Min_cycle;Max_cycle;Signal;HPM_P1;HPM_P2
2022/05/12 00:02:04;;;;;;;30.17;19.23;;;;;;;14.41;64.79;93931.97;4878714;29;20454;-52
2022/05/12 00:04:33;;;;;;;12.68;8.05;;;;;;;14.38;64.60;93936.41;4879150;29;20498;-48
2022/05/12 00:06:59;;;;;;;9.35;6.30;;;;;;;14.31;64.75;93937.41;4879394;29;20067;-48
2022/05/12 00:09:27;;;;;;;8.77;6.50;;;;;;;14.06;65.84;93943.63;4878036;29;20804;-50
2022/05/12 00:11:54;;;;;;;10.73;6.00;;;;;;;14.02;66.10;93953.22;4879151;29;20059;-48
2022/05/12 00:14:21;;;;;;;9.43;6.25;;;;;;;14.09;65.67;93950.28;4878619;29;20059;-50
2022/05/12 00:16:48;;;;;;;10.90;6.47;;;;;;;13.88;66.30;93955.16;4879380;29;20045;-51
2022/05/12 00:19:15;;;;;;;9.88;5.97;;;;;;;13.89;66.84;93958.69;4908114;29;20491;-51
2022/05/12 00:21:43;;;;;;;13.23;5.88;;;;;;;14.04;66.10;93950.78;4916586;29;20051;-52
2022/05/12 00:24:10;;;;;;;11.70;6.37;;;;;;;14.07;65.83;93949.94;4915714;29;20075;-52
2022/05/12 00:26:37;;;;;;;8.73;6.35;;;;;;;14.01;66.16;93948.94;4916555;29;20456;-51
2022/05/12 00:29:06;;;;;;;10.73;6.50;;;;;;;13.94;66.41;93947.13;4915934;29;20052;-50
2022/05/12 00:31:38;;;;;;;9.90;6.22;;;;;;;13.71;66.95;93953.66;4916625;29;20047;-51
2022/05/12 00:34:06;;;;;;;15.00;9.93;;;;;;;13.60;67.36;93945.66;4915996;29;20052;-52
2022/05/12 00:36:34;;;;;;;13.53;8.17;;;;;;;13.53;67.25;93952.13;4916564;29;20401;-52
2022/05/12 00:39:01;;;;;;;11.93;7.32;;;;;;;13.61;67.08;93946.44;4899440;29;20049;-52
2022/05/12 00:41:28;;;;;;;9.18;6.93;;;;;;;13.53;67.38;93954.13;4883546;29;20662;-52
2022/05/12 00:44:02;;;;;;;13.95;7.43;;;;;;;13.48;67.58;93954.63;4878702;29;20435;-51
2022/05/12 00:46:31;;;;;;;10.40;6.70;;;;;;;13.30;68.12;93955.88;4877590;29;21634;-53
2022/05/12 00:49:03;;;;;;;10.17;6.90;;;;;;;13.34;68.56;93958.53;4878416;29;20052;-52
2022/05/12 00:51:39;;;;;;;8.43;5.93;;;;;;;13.32;68.77;93966.47;4877528;29;20835;-51
2022/05/12 00:54:20;;;;;;;12.20;7.50;;;;;;;13.25;68.74;93959.13;4877819;29;20049;-54
2022/05/12 00:56:50;;;;;;;12.23;6.68;;;;;;;13.19;69.14;93955.34;4878407;29;20055;-47
2022/05/12 00:59:22;;;;;;;10.55;6.88;;;;;;;13.04;70.27;93963.19;4877980;29;20258;-52
2022/05/12 01:01:49;;;;;;;10.73;7.10;;;;;;;13.02;70.25;93962.84;4878384;29;20049;-50
2022/05/12 01:04:19;;;;;;;14.35;9.50;;;;;;;12.98;69.70;93964.91;4877653;29;20053;-49
2022/05/12 01:06:46;;;;;;;13.00;7.60;;;;;;;13.02;69.50;93967.56;4878132;29;20053;-49
2022/05/12 01:09:13;;;;;;;9.48;6.53;;;;;;;13.09;69.14;93961.88;4877222;29;20071;-49
2022/05/12 01:14:28;;;;;;;13.03;6.23;;;;;;;13.22;68.39;93965.50;3379144;23;21102;-50
2022/05/12 01:17:08;;;;;;;9.90;5.80;;;;;;;13.16;67.85;93959.75;4909041;29;20055;-50
2022/05/12 01:19:38;;;;;;;8.35;5.80;;;;;;;13.11;68.21;93965.75;4915893;29;20049;-48
2022/05/12 01:22:08;;;;;;;8.25;5.35;;;;;;;13.21;67.45;93965.94;4915387;29;20059;-50
2022/05/12 01:24:45;;;;;;;7.93;5.53;;;;;;;13.16;68.05;93965.25;4907879;29;20056;-50
2022/05/12 01:27:22;;;;;;;9.20;5.60;;;;;;;13.16;67.05;93968.00;4914956;29;20056;-48
2022/05/12 01:29:48;;;;;;;9.68;6.55;;;;;;;13.16;66.89;93968.00;4915588;29;20060;-51
2022/05/12 01:32:16;;;;;;;8.90;5.38;;;;;;;13.21;66.66;93979.72;4914885;29;20043;-49
2022/05/12 01:34:43;;;;;;;8.80;4.55;;;;;;;13.06;67.29;93987.53;4915526;29;20063;-51
2022/05/12 01:37:10;;;;;;;6.75;4.55;;;;;;;13.03;67.37;93971.88;4914746;29;20056;-60
2022/05/12 01:39:37;;;;;;;9.60;5.00;;;;;;;13.00;67.59;93987.28;4915435;29;20048;-51
2022/05/12 01:42:07;;;;;;;8.50;4.90;;;;;;;13.03;66.90;93986.41;4915057;29;20111;-49
2022/05/12 01:44:35;;;;;;;7.35;4.55;;;;;;;13.11;66.52;93987.78;4908903;29;20041;-48
2022/05/12 01:47:04;;;;;;;7.82;4.93;;;;;;;13.12;66.66;93994.88;4902477;29;20052;-47
2022/05/12 01:49:31;;;;;;;7.60;4.90;;;;;;;13.16;66.54;93987.28;4906014;29;20079;-51
2022/05/12 01:51:59;;;;;;;8.13;5.20;;;;;;;13.13;66.51;93984.63;4905184;29;20055;-47
2022/05/12 01:54:28;;;;;;;8.25;5.25;;;;;;;13.06;66.79;93990.28;4895837;29;20943;-50
2022/05/12 01:56:55;;;;;;;9.30;5.60;;;;;;;13.00;66.68;93990.03;4910298;29;20063;-47
2022/05/12 01:59:23;;;;;;;9.65;5.50;;;;;;;12.93;66.70;93998.47;4896138;29;20055;-49
2022/05/12 02:01:50;;;;;;;7.80;5.30;;;;;;;12.93;66.71;93996.47;4896541;29;20607;-54
2022/05/12 02:04:18;;;;;;;7.70;5.00;;;;;;;12.85;66.56;93997.84;4895570;29;20453;-54
2022/05/12 02:06:45;;;;;;;7.15;5.00;;;;;;;12.92;66.44;94005.19;4910825;29;20548;-50
2022/05/12 02:09:12;;;;;;;8.38;5.00;;;;;;;12.87;65.93;94002.94;4895994;29;20049;-53
2022/05/12 02:11:39;;;;;;;8.02;4.80;;;;;;;12.90;65.97;94010.34;4896084;29;20053;-55
2022/05/12 02:14:06;;;;;;;8.07;5.10;;;;;;;12.92;65.81;94013.47;4896012;29;20519;-48
2022/05/12 02:16:34;;;;;;;8.67;4.60;;;;;;;12.97;66.19;94010.19;4895902;29;20048;-51
2022/05/12 02:19:04;;;;;;;7.38;4.40;;;;;;;12.89;65.60;94015.06;4896142;29;20063;-47
2022/05/12 02:21:31;;;;;;;8.38;4.50;;;;;;;12.90;65.91;94010.34;4895391;29;20621;-51
2022/05/12 02:23:59;;;;;;;7.28;4.55;;;;;;;12.89;66.38;94008.78;4904008;29;20055;-51
2022/05/12 02:26:28;;;;;;;8.32;4.30;;;;;;;12.89;66.23;94014.31;4914009;29;20928;-49
2022/05/12 02:28:55;;;;;;;8.23;4.40;;;;;;;12.87;66.33;94017.47;4915044;29;20185;-49
2022/05/12 02:31:22;;;;;;;7.32;4.50;;;;;;;12.84;66.54;94006.53;4914346;29;20409;-54
2022/05/12 02:33:49;;;;;;;6.57;4.15;;;;;;;12.83;66.90;94013.25;4914550;29;20052;-53
2022/05/12 02:36:16;;;;;;;7.25;4.30;;;;;;;12.77;66.64;94022.00;4914230;29;20048;-52
2022/05/12 02:38:43;;;;;;;7.35;4.30;;;;;;;12.73;67.48;94024.06;4914860;29;20639;-53
2022/05/12 02:41:10;;;;;;;8.17;4.17;;;;;;;12.76;66.62;94016.97;4914033;29;20416;-52
2022/05/12 02:43:37;;;;;;;7.68;4.00;;;;;;;12.70;67.26;94026.91;4914331;29;20059;-51
2022/05/12 02:46:06;;;;;;;6.53;4.25;;;;;;;12.65;67.30;94022.69;4914261;29;20044;-54
2022/05/12 02:48:36;;;;;;;8.20;4.30;;;;;;;12.68;67.01;94021.84;4914411;29;20044;-49
2022/05/12 02:51:03;;;;;;;6.95;4.18;;;;;;;12.70;67.01;94029.69;4913970;29;20052;-48
2022/05/12 02:53:31;;;;;;;6.20;4.30;;;;;;;12.68;66.96;94034.84;4914628;29;20472;-48
2022/05/12 02:56:00;;;;;;;5.80;4.13;;;;;;;12.64;67.57;94037.66;4928906;29;20047;-51
2022/05/12 02:58:28;;;;;;;9.55;4.93;;;;;;;12.52;67.95;94038.31;4913585;29;20859;-47
2022/05/12 03:00:55;;;;;;;8.02;4.20;;;;;;;12.54;67.74;94033.16;4914476;29;20115;-55
2022/05/12 03:03:23;;;;;;;9.40;4.07;;;;;;;12.50;67.37;94029.69;4913779;29;20070;-53
2022/05/12 03:05:51;;;;;;;7.53;4.27;;;;;;;12.55;67.04;94040.19;4914398;29;20400;-52
2022/05/12 03:08:18;;;;;;;7.88;4.70;;;;;;;12.56;67.43;94028.00;4913079;29;20048;-54
2022/05/12 03:10:45;;;;;;;6.85;4.30;;;;;;;12.53;67.33;94031.59;4914101;29;20055;-56
2022/05/12 03:13:12;;;;;;;6.78;4.53;;;;;;;12.47;67.86;94034.06;4913968;29;20123;-51
2022/05/12 03:15:38;;;;;;;7.75;4.47;;;;;;;12.40;68.03;94039.72;4914116;29;20066;-50
2022/05/12 03:18:06;;;;;;;24.00;14.57;;;;;;;12.34;68.06;94031.19;4913617;29;20060;-50
2022/05/12 03:20:32;;;;;;;9.80;6.15;;;;;;;12.23;68.91;94027.84;4914072;29;20110;-51
2022/05/12 03:23:00;;;;;;;7.15;4.95;;;;;;;12.21;69.13;94046.00;4913985;29;20052;-51
2022/05/12 03:25:27;;;;;;;7.50;4.90;;;;;;;12.27;68.83;94045.06;4894219;29;20915;-50
2022/05/12 03:27:54;;;;;;;11.27;5.20;;;;;;;12.35;68.49;94048.47;4895373;29;20382;-50
2022/05/12 03:30:24;;;;;;;8.20;5.57;;;;;;;12.34;68.34;94049.69;4894748;29;20061;-51
2022/05/12 03:32:51;;;;;;;8.88;5.22;;;;;;;12.34;68.73;94047.69;4895252;29;20044;-53
2022/05/12 03:35:18;;;;;;;7.85;5.28;;;;;;;12.32;68.89;94050.09;4894504;29;20075;-46
2022/05/12 03:37:46;;;;;;;8.73;5.40;;;;;;;12.31;69.11;94056.00;4895106;29;20052;-49
2022/05/12 03:40:17;;;;;;;7.63;5.18;;;;;;;12.27;69.19;94063.56;4878301;29;20409;-48
2022/05/12 03:42:45;;;;;;;21.03;5.73;;;;;;;12.30;68.50;94060.75;4895123;29;20045;-47
2022/05/12 03:45:13;;;;;;;8.93;5.47;;;;;;;12.32;68.52;94063.84;4894521;29;20048;-46
2022/05/12 03:47:44;;;;;;;8.70;5.10;;;;;;;12.31;68.58;94069.78;4895008;29;20053;-47
2022/05/12 03:50:14;;;;;;;7.43;4.75;;;;;;;12.30;68.66;94065.50;4894355;29;20067;-50
2022/05/12 03:52:47;;;;;;;9.00;5.47;;;;;;;12.33;69.11;94068.16;4895152;29;20049;-48
2022/05/12 03:55:16;;;;;;;9.00;5.40;;;;;;;12.34;68.93;94075.22;4894560;29;20514;-49
2022/05/12 03:57:44;;;;;;;8.63;5.07;;;;;;;12.27;68.99;94077.31;4894699;29;20532;-51
2022/05/12 04:00:14;;;;;;;7.65;5.22;;;;;;;12.34;68.83;94082.69;4894564;29;20051;-49
2022/05/12 04:02:41;;;;;;;10.30;5.15;;;;;;;12.39;69.12;94090.44;4894971;29;20069;-54
2022/05/12 04:05:08;;;;;;;8.63;5.18;;;;;;;12.43;68.79;94084.88;4894188;29;20054;-49
2022/05/12 04:07:40;;;;;;;12.00;5.60;;;;;;;12.45;68.74;94086.00;4895014;29;20048;-49
2022/05/12 04:10:08;;;;;;;11.55;5.90;;;;;;;12.45;69.13;94090.75;4887374;29;20478;-49
2022/05/12 04:12:34;;;;;;;13.40;7.18;;;;;;;12.42;69.29;94095.13;4876162;29;20056;-52
2022/05/12 04:15:01;;;;;;;10.02;6.38;;;;;;;12.49;69.11;94092.22;4881146;29;20482;-48
2022/05/12 04:17:28;;;;;;;7.82;4.97;;;;;;;12.52;68.72;94090.63;4894828;29;20043;-50
2022/05/12 04:19:55;;;;;;;8.80;4.90;;;;;;;12.55;68.19;94087.75;4895984;29;20060;-51
2022/05/12 04:22:22;;;;;;;11.18;5.57;;;;;;;12.60;68.05;94092.03;4897761;29;20058;-52
2022/05/12 04:24:48;;;;;;;10.10;5.82;;;;;;;12.65;68.02;94097.00;4912255;29;20048;-52
2022/05/12 04:27:16;;;;;;;13.38;8.10;;;;;;;12.77;67.20;94095.59;4916596;29;20512;-49
2022/05/12 04:29:43;;;;;;;9.05;5.30;;;;;;;12.86;67.19;94106.03;4917177;29;20054;-47
2022/05/12 04:32:11;;;;;;;8.33;5.30;;;;;;;12.84;66.76;94102.94;4916283;29;20489;-52
2022/05/12 04:37:29;;;;;;;10.23;5.40;;;;;;;12.94;66.70;94107.47;4916286;29;20044;-50
2022/05/12 04:40:07;;;;;;;9.60;5.70;;;;;;;13.08;66.28;94111.84;4916349;29;20405;-50
2022/05/12 04:42:34;;;;;;;9.27;5.90;;;;;;;13.15;66.00;94112.50;4915638;29;21813;-49
2022/05/12 04:45:01;;;;;;;8.87;5.50;;;;;;;13.07;66.08;94118.59;4916182;29;20050;-53
2022/05/12 04:47:27;;;;;;;7.78;4.88;;;;;;;13.33;65.27;94116.88;4915228;29;20938;-54
2022/05/12 04:49:56;;;;;;;9.18;5.90;;;;;;;13.50;64.69;94112.94;4916638;29;20040;-55
2022/05/12 04:52:23;;;;;;;16.80;6.65;;;;;;;13.50;65.03;94118.44;4916021;29;20044;-53
2022/05/12 04:54:50;;;;;;;36.67;25.70;;;;;;;13.36;65.73;94132.53;4915001;29;20052;-56
2022/05/12 04:57:17;;;;;;;20.13;13.10;;;;;;;13.58;64.52;94130.84;4916002;29;20048;-52
2022/05/12 04:59:51;;;;;;;15.05;9.07;;;;;;;13.75;63.88;94136.38;4915314;29;20099;-54
2022/05/12 05:02:18;;;;;;;18.60;12.45;;;;;;;13.71;63.91;94141.97;4915691;29;20052;-51
2022/05/12 05:04:45;;;;;;;13.98;8.18;;;;;;;13.84;63.72;94141.28;4916192;29;20056;-56
2022/05/12 05:07:12;;;;;;;17.80;7.90;;;;;;;14.05;62.55;94143.53;4914639;29;20419;-50
2022/05/12 05:09:41;;;;;;;11.53;7.20;;;;;;;14.21;62.10;94144.72;4915790;29;20048;-52
2022/05/12 05:12:07;;;;;;;8.25;5.75;;;;;;;14.35;61.46;94156.16;4915449;29;20496;-52
2022/05/12 05:14:34;;;;;;;8.65;5.88;;;;;;;14.41;61.92;94147.34;4915541;29;20056;-52
2022/05/12 05:17:01;;;;;;;9.25;5.50;;;;;;;14.57;61.41;94161.94;4915852;29;20052;-53
2022/05/12 05:19:28;;;;;;;8.90;5.30;;;;;;;14.78;61.07;94155.03;4914833;29;21558;-55
2022/05/12 05:21:55;;;;;;;9.77;5.63;;;;;;;14.74;61.19;94156.34;4915812;29;20048;-53
2022/05/12 05:24:22;;;;;;;8.68;5.53;;;;;;;14.16;62.96;94157.03;4904337;29;20075;-53
2022/05/12 05:26:49;;;;;;;9.88;5.55;;;;;;;14.30;63.03;94166.94;4896881;29;20055;-53
2022/05/12 05:29:15;;;;;;;13.10;5.45;;;;;;;14.60;61.92;94165.81;4896178;29;20391;-49
2022/05/12 05:31:42;;;;;;;11.55;5.57;;;;;;;14.80;61.09;94154.59;4895497;29;20053;-48
2022/05/12 05:34:09;;;;;;;10.30;5.73;;;;;;;15.03;61.13;94166.59;4896212;29;20068;-52
2022/05/12 05:36:39;;;;;;;11.93;6.10;;;;;;;15.20;60.86;94172.84;4896571;29;20664;-54
2022/05/12 05:39:07;;;;;;;9.07;5.63;;;;;;;15.28;60.63;94176.97;4895794;29;20526;-53
2022/05/12 05:41:37;;;;;;;11.30;5.80;;;;;;;15.17;61.25;94177.25;4896522;29;20052;-46
2022/05/12 05:44:05;;;;;;;9.43;5.75;;;;;;;15.99;59.32;94174.03;4895789;29;20268;-55
2022/05/12 05:46:32;;;;;;;10.20;5.80;;;;;;;18.17;53.77;94164.66;4896402;29;20056;-53
2022/05/12 05:48:59;;;;;;;8.80;5.90;;;;;;;19.54;50.70;94170.72;4896550;29;20070;-51
2022/05/12 05:54:15;;;;;;;8.20;5.53;;;;;;;21.80;44.01;94167.84;4895821;29;20063;-50
2022/05/12 05:56:43;;;;;;;9.90;5.20;;;;;;;21.72;44.12;94164.66;4896256;29;20060;-50
2022/05/12 05:59:09;;;;;;;9.57;5.10;;;;;;;22.07;42.57;94168.75;4895917;29;20048;-52
2022/05/12 06:01:36;;;;;;;7.95;4.93;;;;;;;24.99;38.52;94175.00;4889812;29;20070;-51
2022/05/12 06:04:03;;;;;;;8.07;4.40;;;;;;;24.87;36.70;94174.19;4881518;29;20053;-52
2022/05/12 06:06:30;;;;;;;7.95;4.78;;;;;;;24.99;37.27;94180.63;4876252;29;20049;-51
2022/05/12 06:08:56;;;;;;;8.95;4.88;;;;;;;26.55;34.29;94180.63;4877262;29;20517;-55
2022/05/12 06:11:23;;;;;;;7.63;4.50;;;;;;;27.45;32.27;94183.97;4877154;29;20043;-56
2022/05/12 06:13:50;;;;;;;7.68;3.95;;;;;;;26.81;32.63;94185.97;4879297;29;20053;-50
2022/05/12 06:16:17;;;;;;;7.90;5.35;;;;;;;27.09;31.34;94191.53;4891124;29;20055;-48
2022/05/12 06:18:44;;;;;;;8.15;4.15;;;;;;;28.78;29.35;94198.88;4895056;29;20045;-51
2022/05/12 06:21:12;;;;;;;7.00;4.10;;;;;;;25.37;34.52;94210.16;4894758;29;20041;-50
2022/05/12 06:23:39;;;;;;;6.13;4.30;;;;;;;27.52;31.95;94202.34;4895424;29;20102;-52
2022/05/12 06:26:13;;;;;;;9.82;4.10;;;;;;;24.82;34.40;94200.22;4893890;29;20044;-54
2022/05/12 06:28:42;;;;;;;5.00;3.55;;;;;;;27.75;30.38;94207.88;4895911;29;20053;-52
2022/05/12 06:31:09;;;;;;;7.03;4.13;;;;;;;28.53;28.73;94203.72;4896061;29;20066;-50
2022/05/12 06:33:36;;;;;;;7.30;3.75;;;;;;;28.68;28.15;94201.28;4895563;29;20061;-53
2022/05/12 06:36:04;;;;;;;5.57;3.70;;;;;;;28.95;28.71;94210.00;4909479;29;20048;-50
2022/05/12 06:38:34;;;;;;;7.28;3.67;;;;;;;31.00;25.53;94204.50;4895629;29;20048;-53
2022/05/12 06:41:04;;;;;;;6.28;3.58;;;;;;;31.20;25.12;94194.59;4895919;29;20520;-51
2022/05/12 06:43:31;;;;;;;7.03;3.63;;;;;;;30.79;25.71;94204.38;4894602;29;20807;-50
2022/05/12 06:45:57;;;;;;;10.50;3.80;;;;;;;31.87;24.30;94205.84;4895331;29;20056;-52
2022/05/12 06:48:25;;;;;;;8.73;3.90;;;;;;;30.19;26.20;94211.25;4893878;29;20108;-54
2022/05/12 06:50:52;;;;;;;7.13;3.80;;;;;;;29.12;27.21;94211.91;4895756;29;20071;-54
2022/05/12 06:53:19;;;;;;;7.05;3.90;;;;;;;30.17;26.28;94213.09;4894994;29;20303;-53
2022/05/12 06:55:45;;;;;;;6.97;3.92;;;;;;;30.10;25.99;94205.22;4895396;29;20071;-54
2022/05/12 06:58:17;;;;;;;6.13;3.42;;;;;;;31.97;23.73;94197.63;4894737;29;20066;-52
2022/05/12 07:00:47;;;;;;;6.87;3.67;;;;;;;31.06;24.07;94212.91;4897551;29;20060;-48
2022/05/12 07:03:16;;;;;;;6.40;3.70;;;;;;;31.74;24.06;94206.66;4903086;29;20067;-56
2022/05/12 07:05:44;;;;;;;6.45;3.58;;;;;;;32.39;23.63;94206.97;4895415;29;20053;-51
2022/05/12 07:08:11;;;;;;;6.05;3.63;;;;;;;31.43;24.09;94206.25;4894638;29;20099;-53
2022/05/12 07:10:38;;;;;;;5.95;3.50;;;;;;;31.06;25.02;94205.16;4909787;29;20056;-51
2022/05/12 07:13:06;;;;;;;7.37;3.80;;;;;;;32.58;22.89;94208.91;4894823;29;20048;-50
2022/05/12 07:15:32;;;;;;;10.20;4.10;;;;;;;30.69;25.22;94193.97;4909050;29;20052;-50
2022/05/12 07:18:00;;;;;;;7.03;3.65;;;;;;;30.98;25.38;94207.13;4895183;29;20523;-49
2022/05/12 07:28:45;;;;;;;6.38;3.90;;;;;;;31.65;24.39;94216.41;4913201;29;20849;-54
2022/05/12 07:31:11;;;;;;;5.53;3.58;;;;;;;31.70;24.08;94211.16;4913419;29;20047;-51
2022/05/12 07:33:41;;;;;;;8.40;3.90;;;;;;;31.09;24.82;94217.50;4914128;29;20111;-48
2022/05/12 07:36:21;;;;;;;6.57;4.07;;;;;;;31.10;25.94;94215.44;4913759;29;20497;-50
2022/05/12 07:38:48;;;;;;;8.40;3.90;;;;;;;31.33;24.77;94212.91;4910288;29;20432;-56
2022/05/12 07:41:16;;;;;;;7.43;3.80;;;;;;;32.67;23.69;94210.47;4905495;29;20044;-52
2022/05/12 07:43:45;;;;;;;9.25;4.00;;;;;;;32.79;23.27;94212.47;4894817;29;20096;-54
2022/05/12 07:46:14;;;;;;;7.38;4.10;;;;;;;32.11;24.46;94212.56;4894369;29;20049;-53
2022/05/12 07:48:41;;;;;;;7.05;3.75;;;;;;;31.96;24.21;94213.16;4895138;29;20049;-52
2022/05/12 07:51:10;;;;;;;5.13;3.90;;;;;;;31.21;26.15;94220.88;4894654;29;20041;-48
2022/05/12 07:53:37;;;;;;;6.20;3.97;;;;;;;31.66;24.82;94222.81;4894902;29;20409;-53
2022/05/12 07:56:05;;;;;;;6.57;3.85;;;;;;;33.18;23.14;94218.44;4897296;29;20521;-52
2022/05/12 07:58:32;;;;;;;6.07;3.92;;;;;;;31.39;25.51;94207.88;4898410;29;20054;-51
2022/05/12 08:00:59;;;;;;;6.10;3.95;;;;;;;32.77;23.72;94211.50;4898492;29;20531;-52
2022/05/12 08:03:26;;;;;;;9.90;3.70;;;;;;;34.40;21.83;94217.50;4897914;29;20295;-51
2022/05/12 08:05:54;;;;;;;5.25;3.60;;;;;;;35.39;20.81;94208.19;4898461;29;20052;-56
2022/05/12 08:08:21;;;;;;;6.78;3.70;;;;;;;34.14;21.81;94225.03;4897802;29;20052;-56
2022/05/12 08:10:47;;;;;;;5.00;3.63;;;;;;;35.35;21.52;94216.38;4912585;29;20049;-52
2022/05/12 08:13:17;;;;;;;5.78;3.80;;;;;;;35.97;19.61;94214.09;4897881;29;20056;-51
2022/05/12 08:15:49;;;;;;;6.90;3.60;;;;;;;34.52;21.36;94220.75;4897930;29;20049;-56
2022/05/12 08:18:18;;;;;;;7.45;3.95;;;;;;;31.32;25.06;94225.56;4897761;29;20108;-52
2022/05/12 08:20:45;;;;;;;6.35;3.92;;;;;;;29.12;28.29;94232.47;4898293;29;20048;-55
2022/05/12 08:23:13;;;;;;;6.82;4.13;;;;;;;30.78;26.65;94230.41;4913968;29;20048;-51
2022/05/12 08:25:41;;;;;;;10.50;4.10;;;;;;;32.93;23.31;94213.16;4915518;29;20055;-53
2022/05/12 08:28:08;;;;;;;9.40;4.00;;;;;;;34.53;21.78;94225.09;4916626;29;20070;-52
2022/05/12 08:30:35;;;;;;;4.93;3.90;;;;;;;33.37;23.21;94226.75;4931225;29;20711;-56
2022/05/12 08:33:02;;;;;;;5.63;3.50;;;;;;;34.09;21.99;94228.78;4916575;29;20045;-52
2022/05/12 08:35:28;;;;;;;6.68;3.53;;;;;;;35.67;20.71;94231.34;4916842;29;20129;-51
2022/05/12 08:37:55;;;;;;;7.28;3.90;;;;;;;34.35;22.05;94230.59;4915175;29;20052;-56
2022/05/12 08:40:37;;;;;;;7.93;3.80;;;;;;;35.68;20.13;94227.94;4916045;29;20068;-55
2022/05/12 08:43:17;;;;;;;7.32;3.60;;;;;;;35.46;20.85;94235.19;4916204;29;20514;-52
2022/05/12 08:45:44;;;;;;;10.60;3.90;;;;;;;34.31;21.77;94233.06;4916368;29;20185;-53
2022/05/12 08:48:14;;;;;;;6.47;3.90;;;;;;;33.58;22.48;94235.94;4915892;29;20115;-51
2022/05/12 08:50:41;;;;;;;9.32;4.70;;;;;;;33.15;23.43;94236.66;4914748;29;20048;-54
2022/05/12 08:53:18;;;;;;;7.43;4.00;;;;;;;32.66;24.12;94232.47;4904749;29;20056;-49
2022/05/12 08:55:51;;;;;;;8.15;5.25;;;;;;;32.61;24.35;94244.72;4930894;29;20054;-49
2022/05/12 08:58:25;;;;;;;11.13;4.38;;;;;;;32.35;24.17;94237.81;4915909;29;20048;-51
2022/05/12 09:00:55;;;;;;;6.80;4.35;;;;;;;33.04;23.42;94237.66;4916221;29;20426;-52
2022/05/12 09:03:59;;;;;;;8.57;4.30;;;;;;;34.26;21.96;94244.63;4915894;29;20088;-55
2022/05/12 09:06:29;;;;;;;8.30;4.50;;;;;;;34.81;20.89;94239.22;4915662;29;20056;-50
2022/05/12 09:09:30;;;;;;;6.82;3.95;;;;;;;34.01;22.49;94234.47;4916256;29;20052;-54
2022/05/12 09:12:04;;;;;;;7.65;4.00;;;;;;;35.50;20.96;94238.44;4908526;29;20215;-53
2022/05/12 09:14:40;;;;;;;6.55;3.72;;;;;;;34.42;22.34;94244.09;4914889;29;20382;-50
2022/05/12 09:17:19;;;;;;;9.90;4.30;;;;;;;34.26;21.93;94233.97;4915381;29;20122;-50
2022/05/12 09:19:46;;;;;;;8.07;4.00;;;;;;;32.69;24.28;94242.69;4916070;29;20066;-51
2022/05/12 09:22:13;;;;;;;5.95;3.58;;;;;;;33.95;22.58;94244.50;4915350;29;20059;-51
2022/05/12 09:24:41;;;;;;;6.00;3.92;;;;;;;31.95;24.73;94234.31;4915588;29;20052;-50
2022/05/12 09:27:13;;;;;;;7.53;4.30;;;;;;;32.99;24.09;94245.03;4914160;29;20056;-52
2022/05/12 09:29:44;;;;;;;7.32;3.88;;;;;;;34.74;22.10;94251.38;4915770;29;20156;-54
2022/05/12 09:32:11;;;;;;;6.97;4.03;;;;;;;36.89;19.36;94237.81;4915175;29;20044;-51
2022/05/12 09:34:42;;;;;;;6.00;4.25;;;;;;;32.86;23.62;94230.13;4915754;29;20044;-50
2022/05/12 09:37:26;;;;;;;5.85;4.10;;;;;;;34.29;22.31;94255.66;4915291;29;20048;-55
2022/05/12 09:39:55;;;;;;;6.90;4.55;;;;;;;34.73;22.41;94249.09;4915868;29;20071;-55
2022/05/12 09:42:28;;;;;;;6.93;4.80;;;;;;;34.09;23.09;94247.94;4915223;29;20056;-55
2022/05/12 09:45:14;;;;;;;6.90;4.60;;;;;;;34.88;22.23;94242.66;4915623;29;20062;-52
2022/05/12 09:47:40;;;;;;;5.70;4.70;;;;;;;34.76;22.29;94260.13;4913301;29;20075;-56
2022/05/12 09:50:17;;;;;;;9.15;5.30;;;;;;;33.24;23.95;94233.28;4914866;29;20052;-54
2022/05/12 09:53:06;;;;;;;8.05;5.07;;;;;;;32.59;24.94;94242.41;4909138;29;20051;-54
2022/05/12 09:55:39;;;;;;;7.95;5.30;;;;;;;31.37;26.17;94236.81;4895653;29;20912;-53
2022/05/12 09:58:28;;;;;;;8.73;5.27;;;;;;;32.21;24.98;94233.50;4896135;29;20191;-52
2022/05/12 10:01:24;;;;;;;6.45;4.90;;;;;;;34.71;22.60;94228.94;4896190;29;20058;-52
2022/05/12 10:09:32;;;;;;;8.27;5.15;;;;;;;32.21;25.20;94217.22;4895399;29;20056;-51
2022/05/12 10:12:00;;;;;;;7.47;5.20;;;;;;;32.87;24.30;94217.47;4895959;29;20154;-52
2022/05/12 10:14:29;;;;;;;9.13;5.30;;;;;;;32.71;25.32;94219.41;4894866;29;20716;-55
2022/05/12 10:17:00;;;;;;;10.30;5.20;;;;;;;31.38;26.43;94217.72;4895652;29;20044;-52
2022/05/12 10:19:29;;;;;;;8.43;5.63;;;;;;;31.41;26.66;94214.53;4895637;29;20082;-53
2022/05/12 10:22:21;;;;;;;7.10;5.10;;;;;;;32.93;25.37;94215.22;4896155;29;20048;-54
2022/05/12 10:25:13;;;;;;;8.43;5.53;;;;;;;33.10;24.92;94207.06;4909514;29;20066;-53
2022/05/12 10:28:12;;;;;;;10.40;5.20;;;;;;;33.07;25.04;94205.28;4912699;29;20054;-52
2022/05/12 10:30:59;;;;;;;10.75;5.20;;;;;;;33.33;24.80;94195.81;4913880;29;20052;-56
2022/05/12 10:33:34;;;;;;;6.88;5.60;;;;;;;33.89;24.08;94193.41;4914374;29;20050;-56
2022/05/12 10:36:23;;;;;;;7.25;5.10;;;;;;;35.59;21.77;94194.25;4914707;29;20040;-56
2022/05/12 10:39:01;;;;;;;8.57;5.53;;;;;;;33.34;24.52;94188.78;4912263;29;20421;-51
2022/05/12 10:41:33;;;;;;;8.85;5.28;;;;;;;33.07;24.82;94190.31;4913678;29;20392;-53
2022/05/12 10:44:14;;;;;;;6.95;5.10;;;;;;;33.91;24.27;94187.16;4914583;29;20111;-51
2022/05/12 10:46:53;;;;;;;10.63;4.93;;;;;;;33.42;24.53;94177.44;4913602;29;20760;-48
2022/05/12 10:49:58;;;;;;;10.65;5.10;;;;;;;32.58;25.92;94184.09;4914229;29;20103;-51
2022/05/12 10:52:47;;;;;;;6.27;4.60;;;;;;;31.68;26.98;94176.88;4905188;29;20068;-51
2022/05/12 10:55:29;;;;;;;7.65;5.25;;;;;;;31.48;27.15;94176.25;4895321;29;20067;-50
2022/05/12 10:58:30;;;;;;;8.35;5.18;;;;;;;31.39;27.07;94179.50;4895449;29;20063;-53
2022/05/12 11:01:10;;;;;;;8.73;5.25;;;;;;;30.35;27.70;94169.84;4890650;29;20593;-52
2022/05/12 11:04:00;;;;;;;9.30;5.28;;;;;;;29.32;29.39;94171.84;4894758;29;20735;-55
2022/05/12 11:06:45;;;;;;;9.40;5.10;;;;;;;30.45;27.90;94170.22;4894537;29;21574;-54
2022/05/12 11:09:26;;;;;;;7.53;5.07;;;;;;;30.73;28.16;94169.72;4894836;29;20116;-54
2022/05/12 11:11:56;;;;;;;8.75;5.10;;;;;;;30.34;27.92;94168.31;4895693;29;20049;-52
2022/05/12 11:14:31;;;;;;;9.07;5.35;;;;;;;29.86;29.38;94168.03;4894374;29;20071;-50
2022/05/12 11:17:10;;;;;;;10.45;5.70;;;;;;;29.57;29.87;94166.09;4895206;29;20508;-51
2022/05/12 11:19:45;;;;;;;7.67;5.13;;;;;;;29.72;29.00;94165.66;4894235;29;21756;-49
2022/05/12 11:22:42;;;;;;;7.50;5.35;;;;;;;29.42;30.01;94160.94;4894544;29;20454;-51
2022/05/12 11:25:19;;;;;;;7.28;5.38;;;;;;;29.45;29.83;94159.84;4911986;29;20050;-52
2022/05/12 11:27:52;;;;;;;8.38;5.75;;;;;;;28.47;31.49;94147.31;4914135;29;20489;-51
2022/05/12 11:30:31;;;;;;;8.38;5.38;;;;;;;28.70;31.97;94149.19;4914319;29;20481;-55
2022/05/12 11:33:20;;;;;;;10.90;5.90;;;;;;;27.59;32.72;94147.50;4916849;29;20070;-51
2022/05/12 11:35:50;;;;;;;9.27;6.10;;;;;;;26.98;33.52;94150.06;4916781;29;20052;-55
2022/05/12 11:38:47;;;;;;;9.95;5.90;;;;;;;27.67;33.57;94145.66;4917205;29;20062;-49
2022/05/12 11:41:19;;;;;;;8.43;5.68;;;;;;;27.83;32.76;94146.78;4916084;29;20052;-50
2022/05/12 11:47:11;;;;;;;7.13;5.30;;;;;;;28.87;31.47;94139.19;4916876;29;20637;-52
2022/05/12 11:49:43;;;;;;;9.43;5.70;;;;;;;28.86;30.50;94137.69;4916698;29;20795;-56
2022/05/12 11:52:48;;;;;;;9.57;5.70;;;;;;;28.44;31.80;94142.72;4910761;29;20048;-54
2022/05/12 11:55:52;;;;;;;7.70;5.20;;;;;;;28.29;31.12;94134.66;4898156;29;20108;-52
2022/05/12 11:58:32;;;;;;;9.43;5.43;;;;;;;28.11;31.17;94138.16;4898036;29;20051;-53
2022/05/12 12:01:03;;;;;;;7.17;5.43;;;;;;;27.46;32.71;94131.16;4898594;29;20071;-53
2022/05/12 12:03:30;;;;;;;8.77;5.60;;;;;;;27.29;33.03;94128.44;4897502;29;20746;-50
2022/05/12 12:06:05;;;;;;;8.52;5.32;;;;;;;27.01;32.71;94126.50;4898364;29;20048;-51
2022/05/12 12:08:39;;;;;;;9.88;5.65;;;;;;;28.23;32.26;94139.59;4897584;29;20048;-50
2022/05/12 12:11:17;;;;;;;9.00;5.50;;;;;;;27.60;32.25;94120.81;4898172;29;20055;-51
2022/05/12 12:13:55;;;;;;;7.70;5.47;;;;;;;28.02;32.12;94122.31;4898195;29;20052;-54
2022/05/12 12:16:26;;;;;;;8.93;5.43;;;;;;;27.10;33.59;94126.22;4897350;29;20049;-51